createdAt,value
2022-10-31T00:00:48.736Z,11.40
2022-10-31T00:03:16.324Z,11.40
2022-10-31T00:05:52.140Z,11.40
2022-10-31T00:08:19.570Z,11.40
2022-10-31T00:10:46.843Z,11.40
2022-10-31T00:13:14.789Z,11.40
2022-10-31T00:15:41.845Z,11.40
2022-10-31T00:18:10.460Z,11.30
2022-10-31T00:20:37.847Z,11.20
2022-10-31T00:23:05.532Z,11.10
2022-10-31T00:25:37.150Z,11.10
2022-10-31T00:28:05.299Z,11.10
2022-10-31T00:30:32.126Z,11.10
2022-10-31T00:32:59.234Z,11.10
2022-10-31T00:35:26.171Z,11.00
2022-10-31T00:37:53.497Z,11.00
2022-10-31T00:40:20.154Z,11.00
2022-10-31T00:42:46.787Z,11.00
2022-10-31T00:45:13.608Z,11.00
2022-10-31T00:47:40.237Z,11.10
2022-10-31T00:50:08.568Z,11.10
2022-10-31T00:52:35.701Z,11.10
2022-10-31T00:55:02.358Z,11.10
2022-10-31T00:57:28.992Z,11.10
2022-10-31T00:59:55.613Z,11.10
2022-10-31T01:02:22.509Z,11.00
2022-10-31T01:04:49.292Z,11.00
2022-10-31T01:07:15.926Z,11.00
2022-10-31T01:09:42.566Z,11.00
2022-10-31T01:12:09.644Z,11.00
2022-10-31T01:14:36.285Z,11.00
2022-10-31T01:17:03.019Z,11.00
2022-10-31T01:19:29.664Z,11.00
2022-10-31T01:21:56.563Z,11.00
2022-10-31T01:24:23.290Z,11.00
2022-10-31T01:26:49.936Z,11.00
2022-10-31T01:29:16.595Z,11.00
2022-10-31T01:31:43.286Z,11.00
2022-10-31T01:34:14.737Z,11.00
2022-10-31T01:36:41.934Z,11.10
2022-10-31T01:39:16.483Z,11.10
2022-10-31T01:41:46.125Z,11.10
2022-10-31T01:44:15.607Z,11.10
2022-10-31T01:46:45.167Z,11.10
2022-10-31T01:49:34.925Z,11.10
2022-10-31T01:52:13.902Z,11.00
2022-10-31T01:54:49.804Z,11.00
2022-10-31T01:57:19.110Z,11.00
2022-10-31T01:59:49.405Z,11.00
2022-10-31T02:02:18.510Z,10.90
2022-10-31T02:04:46.911Z,10.90
2022-10-31T02:07:18.535Z,10.80
2022-10-31T02:09:47.292Z,10.80
2022-10-31T02:12:14.639Z,10.80
2022-10-31T02:14:42.273Z,10.70
2022-10-31T02:17:09.222Z,10.70
2022-10-31T02:19:57.739Z,10.60
2022-10-31T02:22:42.928Z,10.60
2022-10-31T02:25:36.398Z,10.50
2022-10-31T02:28:40.257Z,10.50
2022-10-31T02:31:41.170Z,10.50
2022-10-31T02:34:21.834Z,10.50
2022-10-31T02:37:02.725Z,10.50
2022-10-31T02:39:43.881Z,10.50
2022-10-31T02:42:14.341Z,10.50
2022-10-31T02:44:55.260Z,10.40
2022-10-31T02:47:31.019Z,10.40
2022-10-31T02:50:03.809Z,10.40
2022-10-31T02:52:32.981Z,10.40
2022-10-31T02:55:09.390Z,10.40
2022-10-31T02:57:39.113Z,10.40
2022-10-31T03:00:08.269Z,10.50
2022-10-31T03:02:50.155Z,10.50
2022-10-31T03:05:38.255Z,10.50
2022-10-31T03:08:36.316Z,10.60
2022-10-31T03:11:08.650Z,10.60
2022-10-31T03:13:45.838Z,10.60
2022-10-31T03:16:51.501Z,10.60
2022-10-31T03:19:29.658Z,10.70
2022-10-31T03:22:09.036Z,10.70
2022-10-31T03:24:40.128Z,10.60
2022-10-31T03:27:09.656Z,10.60
2022-10-31T03:29:38.817Z,10.60
2022-10-31T03:32:16.195Z,10.70
2022-10-31T03:34:45.304Z,10.60
2022-10-31T03:37:15.411Z,10.60
2022-10-31T03:39:44.594Z,10.60
2022-10-31T03:42:24.182Z,10.60
2022-10-31T03:44:59.836Z,10.60
2022-10-31T03:47:26.879Z,10.60
2022-10-31T03:49:54.617Z,10.60
2022-10-31T03:52:43.862Z,10.50
2022-10-31T03:55:19.779Z,10.50
2022-10-31T03:58:06.529Z,10.50
2022-10-31T04:00:34.888Z,10.50
2022-10-31T04:03:10.642Z,10.40
2022-10-31T04:05:39.361Z,10.40
2022-10-31T04:08:10.094Z,10.40
2022-10-31T04:10:39.686Z,10.40
2022-10-31T04:13:09.787Z,10.40
2022-10-31T04:15:38.005Z,10.30
2022-10-31T04:18:06.051Z,10.40
2022-10-31T04:20:38.348Z,10.40
2022-10-31T04:23:05.695Z,10.30
2022-10-31T04:25:32.800Z,10.30
2022-10-31T04:27:59.752Z,10.30
2022-10-31T04:30:26.632Z,10.30
2022-10-31T04:32:53.273Z,10.30
2022-10-31T04:35:19.917Z,10.30
2022-10-31T04:37:46.532Z,10.30
2022-10-31T04:40:13.258Z,10.30
2022-10-31T04:42:39.897Z,10.30
2022-10-31T04:45:06.951Z,10.30
2022-10-31T04:47:34.401Z,10.30
2022-10-31T04:50:01.938Z,10.40
2022-10-31T04:52:28.956Z,10.40
2022-10-31T04:54:55.580Z,10.40
2022-10-31T04:57:22.256Z,10.40
2022-10-31T04:59:49.947Z,10.40
2022-10-31T05:02:16.625Z,10.40
2022-10-31T05:04:43.374Z,10.40
2022-10-31T05:07:10.036Z,10.40
2022-10-31T05:09:36.694Z,10.40
2022-10-31T05:12:03.369Z,10.40
2022-10-31T05:14:30.113Z,10.50
2022-10-31T05:16:56.757Z,10.40
2022-10-31T05:19:23.403Z,10.40
2022-10-31T05:21:50.005Z,10.40
2022-10-31T05:24:16.620Z,10.40
2022-10-31T05:26:43.251Z,10.40
2022-10-31T05:29:09.881Z,10.40
2022-10-31T05:31:36.499Z,10.40
2022-10-31T05:34:03.207Z,10.40
2022-10-31T05:36:29.876Z,10.40
2022-10-31T05:38:56.516Z,10.40
2022-10-31T05:41:23.111Z,10.40
2022-10-31T05:43:49.771Z,10.40
2022-10-31T05:46:16.497Z,10.40
2022-10-31T05:48:43.132Z,10.40
2022-10-31T05:51:09.758Z,10.40
2022-10-31T05:53:36.392Z,10.40
2022-10-31T05:56:03.001Z,10.40
2022-10-31T05:58:29.640Z,10.40
2022-10-31T06:00:56.273Z,10.30
2022-10-31T06:03:22.996Z,10.30
2022-10-31T06:05:52.486Z,10.40
2022-10-31T06:08:21.910Z,10.30
2022-10-31T06:10:48.581Z,10.40
2022-10-31T06:13:15.234Z,10.40
2022-10-31T06:15:43.178Z,10.40
2022-10-31T06:18:09.975Z,10.30
2022-10-31T06:20:37.160Z,10.30
2022-10-31T06:23:05.145Z,10.30
2022-10-31T06:25:32.155Z,10.30
2022-10-31T06:27:58.881Z,10.40
2022-10-31T06:30:25.805Z,10.40
2022-10-31T06:32:52.780Z,10.50
2022-10-31T06:35:19.455Z,10.50
2022-10-31T06:37:53.292Z,10.60
2022-10-31T06:40:20.375Z,10.70
2022-10-31T06:42:47.020Z,10.70
2022-10-31T06:45:13.883Z,10.80
2022-10-31T06:47:56.788Z,10.90
2022-10-31T06:50:27.280Z,10.90
2022-10-31T06:52:58.818Z,11.00
2022-10-31T06:55:27.005Z,11.10
2022-10-31T06:58:01.880Z,11.20
2022-10-31T07:00:31.580Z,11.30
2022-10-31T07:03:04.332Z,11.40
2022-10-31T07:05:31.804Z,11.50
2022-10-31T07:08:00.776Z,11.60
2022-10-31T07:10:31.222Z,11.70
2022-10-31T07:13:02.699Z,11.80
2022-10-31T07:15:33.364Z,11.90
2022-10-31T07:18:04.997Z,12.00
2022-10-31T07:20:32.507Z,12.10
2022-10-31T07:22:59.787Z,12.30
2022-10-31T07:25:26.808Z,12.40
2022-10-31T07:27:53.562Z,12.60
2022-10-31T07:30:20.717Z,12.70
2022-10-31T07:32:49.251Z,12.90
2022-10-31T07:35:18.900Z,13.10
2022-10-31T07:37:45.540Z,13.20
2022-10-31T07:40:12.904Z,13.40
2022-10-31T07:42:41.601Z,13.60
2022-10-31T07:45:11.270Z,13.80
2022-10-31T07:47:42.431Z,13.90
2022-10-31T07:50:11.377Z,14.10
2022-10-31T07:52:38.010Z,14.30
2022-10-31T07:55:06.038Z,14.50
2022-10-31T07:57:34.732Z,14.70
2022-10-31T08:00:01.827Z,14.90
2022-10-31T08:02:28.481Z,15.10
2022-10-31T08:04:58.619Z,15.40
2022-10-31T08:07:28.355Z,15.80
2022-10-31T08:09:55.844Z,16.50
2022-10-31T08:12:22.737Z,17.00
2022-10-31T08:14:49.426Z,17.30
2022-10-31T08:17:16.065Z,17.30
2022-10-31T08:19:42.729Z,17.30
2022-10-31T08:22:09.463Z,17.20
2022-10-31T08:24:36.167Z,17.10
2022-10-31T08:27:02.882Z,17.00
2022-10-31T08:29:29.569Z,17.00
2022-10-31T08:31:58.198Z,16.90
2022-10-31T08:34:25.448Z,16.90
2022-10-31T08:36:53.098Z,16.90
2022-10-31T08:39:19.769Z,17.00
2022-10-31T08:41:46.433Z,17.00
2022-10-31T08:44:13.131Z,17.30
2022-10-31T08:46:39.817Z,17.50
2022-10-31T08:49:06.537Z,17.70
2022-10-31T08:51:33.236Z,17.80
2022-10-31T08:53:59.881Z,17.90
2022-10-31T08:56:26.595Z,17.90
2022-10-31T08:58:54.638Z,17.90
2022-10-31T09:01:21.381Z,17.90
2022-10-31T09:03:48.273Z,18.00
2022-10-31T09:06:15.034Z,18.20
2022-10-31T09:08:41.703Z,18.50
2022-10-31T09:11:08.413Z,19.10
2022-10-31T09:13:40.237Z,19.80
2022-10-31T09:16:08.223Z,20.30
2022-10-31T09:18:34.966Z,20.60
2022-10-31T09:21:02.077Z,20.90
2022-10-31T09:23:29.296Z,21.00
2022-10-31T09:25:56.439Z,21.20
2022-10-31T09:28:24.646Z,21.20
2022-10-31T09:30:53.558Z,21.40
2022-10-31T09:33:20.947Z,21.50
2022-10-31T09:35:47.615Z,21.60
2022-10-31T09:38:17.075Z,21.60
2022-10-31T09:41:20.515Z,21.70
2022-10-31T09:44:08.779Z,21.80
2022-10-31T09:46:51.312Z,22.00
2022-10-31T09:49:39.021Z,22.20
2022-10-31T09:52:20.854Z,22.30
2022-10-31T09:54:54.199Z,22.30
2022-10-31T09:57:28.116Z,22.30
2022-10-31T09:59:55.405Z,22.20
2022-10-31T10:02:30.937Z,22.20
2022-10-31T10:05:05.012Z,22.00
2022-10-31T10:07:45.868Z,21.90
2022-10-31T10:10:21.765Z,21.80
2022-10-31T10:13:10.211Z,21.70
2022-10-31T10:15:57.822Z,21.60
2022-10-31T10:18:36.457Z,21.50
2022-10-31T10:21:13.960Z,21.50
2022-10-31T10:23:57.522Z,21.60
2022-10-31T10:26:35.626Z,21.70
2022-10-31T10:29:08.382Z,22.00
2022-10-31T10:31:41.027Z,22.30
2022-10-31T10:34:26.065Z,22.50
2022-10-31T10:37:15.093Z,22.60
2022-10-31T10:39:47.887Z,22.80
2022-10-31T10:42:35.553Z,23.00
2022-10-31T10:45:34.677Z,23.20
2022-10-31T10:48:11.381Z,23.50
2022-10-31T10:50:43.410Z,23.90
2022-10-31T10:53:22.310Z,24.30
2022-10-31T10:56:00.834Z,25.10
2022-10-31T10:58:27.488Z,25.70
2022-10-31T11:00:56.104Z,26.40
2022-10-31T11:03:22.871Z,27.10
2022-10-31T11:05:53.520Z,27.90
2022-10-31T11:08:35.410Z,28.50
2022-10-31T11:11:08.761Z,28.90
2022-10-31T11:13:37.040Z,29.30
2022-10-31T11:16:30.047Z,29.70
2022-10-31T11:19:10.804Z,29.80
2022-10-31T11:21:37.500Z,30.00
2022-10-31T11:24:10.333Z,30.10
2022-10-31T11:26:41.533Z,30.00
2022-10-31T11:29:20.964Z,30.00
2022-10-31T11:31:49.349Z,30.20
2022-10-31T11:34:27.916Z,30.40
2022-10-31T11:36:54.775Z,30.80
2022-10-31T11:39:24.853Z,31.20
2022-10-31T11:41:53.897Z,31.10
2022-10-31T11:44:31.496Z,31.40
2022-10-31T11:47:06.837Z,31.80
2022-10-31T11:49:42.699Z,32.30
2022-10-31T11:52:21.965Z,32.70
2022-10-31T11:54:54.416Z,33.20
2022-10-31T11:57:26.630Z,33.30
2022-10-31T11:59:59.071Z,33.40
2022-10-31T12:02:26.835Z,33.50
2022-10-31T12:05:02.526Z,33.50
2022-10-31T12:07:29.342Z,33.60
2022-10-31T12:09:55.957Z,33.70
2022-10-31T12:12:28.591Z,33.50
2022-10-31T12:14:55.156Z,33.20
2022-10-31T12:17:30.840Z,33.00
2022-10-31T12:20:12.480Z,32.70
2022-10-31T12:23:08.460Z,32.50
2022-10-31T12:25:53.761Z,32.60
2022-10-31T12:28:55.262Z,33.40
2022-10-31T12:31:53.489Z,33.70
2022-10-31T12:34:49.237Z,33.90
2022-10-31T12:37:22.316Z,34.30
2022-10-31T12:39:57.969Z,34.60
2022-10-31T12:42:48.821Z,34.40
2022-10-31T12:45:38.099Z,33.90
2022-10-31T12:48:43.418Z,33.30
2022-10-31T12:51:35.224Z,32.70
2022-10-31T12:54:32.951Z,32.10
2022-10-31T12:57:14.321Z,31.40
2022-10-31T12:59:48.936Z,30.90
2022-10-31T13:02:40.048Z,30.30
2022-10-31T13:05:31.292Z,29.70
2022-10-31T13:08:18.875Z,29.00
2022-10-31T13:11:10.706Z,28.30
2022-10-31T13:13:40.659Z,27.70
2022-10-31T13:16:17.227Z,27.20
2022-10-31T13:18:52.109Z,26.80
2022-10-31T13:21:27.129Z,26.40
2022-10-31T13:23:58.806Z,26.00
2022-10-31T13:26:39.424Z,25.70
2022-10-31T13:29:23.795Z,25.30
2022-10-31T13:31:52.456Z,25.00
2022-10-31T13:34:34.222Z,24.60
2022-10-31T13:37:25.091Z,24.30
2022-10-31T13:40:20.635Z,23.90
2022-10-31T13:43:07.544Z,23.60
2022-10-31T13:45:34.285Z,23.40
2022-10-31T13:48:02.721Z,23.10
2022-10-31T13:50:32.065Z,22.90
2022-10-31T13:53:36.636Z,22.80
2022-10-31T13:56:14.104Z,22.50
2022-10-31T13:58:57.666Z,22.30
2022-10-31T14:01:24.550Z,22.10
2022-10-31T14:04:14.002Z,22.00
2022-10-31T14:06:58.253Z,21.80
2022-10-31T14:09:27.415Z,21.60
2022-10-31T14:11:55.513Z,21.50
2022-10-31T14:14:27.605Z,21.40
2022-10-31T14:16:58.050Z,21.40
2022-10-31T14:19:25.507Z,21.60
2022-10-31T14:21:52.303Z,22.30
2022-10-31T14:24:25.070Z,22.90
2022-10-31T14:27:05.931Z,22.90
2022-10-31T14:29:34.519Z,22.90
2022-10-31T14:32:15.004Z,22.90
2022-10-31T14:35:00.828Z,23.40
2022-10-31T14:37:38.860Z,24.70
2022-10-31T14:40:33.432Z,25.90
2022-10-31T14:43:08.780Z,26.80
2022-10-31T14:45:48.008Z,27.40
2022-10-31T14:48:38.995Z,27.10
2022-10-31T14:51:14.470Z,26.60
2022-10-31T14:53:52.205Z,26.00
2022-10-31T14:56:26.281Z,25.30
2022-10-31T14:58:56.115Z,24.60
2022-10-31T15:01:27.619Z,24.00
2022-10-31T15:04:23.073Z,23.50
2022-10-31T15:06:58.822Z,23.10
2022-10-31T15:09:31.993Z,22.40
2022-10-31T15:12:17.742Z,22.10
2022-10-31T15:14:44.366Z,21.70
2022-10-31T15:17:12.574Z,21.20
2022-10-31T15:19:39.788Z,21.00
2022-10-31T15:22:11.255Z,20.70
2022-10-31T15:24:42.305Z,20.50
2022-10-31T15:27:14.147Z,20.20
2022-10-31T15:29:50.428Z,20.00
2022-10-31T15:32:23.841Z,19.80
2022-10-31T15:34:52.571Z,19.60
2022-10-31T15:37:25.212Z,19.50
2022-10-31T15:39:52.383Z,19.40
2022-10-31T15:42:36.451Z,19.30
2022-10-31T15:45:17.017Z,19.40
2022-10-31T15:47:54.442Z,19.30
2022-10-31T15:50:32.772Z,19.20
2022-10-31T15:53:01.186Z,19.10
2022-10-31T15:55:30.585Z,19.00
2022-10-31T15:58:02.986Z,18.90
2022-10-31T16:00:39.239Z,18.80
2022-10-31T16:03:20.655Z,18.60
2022-10-31T16:05:48.428Z,18.50
2022-10-31T16:08:30.056Z,18.40
2022-10-31T16:11:04.443Z,18.30
2022-10-31T16:13:38.221Z,18.20
2022-10-31T16:16:34.113Z,18.10
2022-10-31T16:19:03.017Z,18.00
2022-10-31T16:21:36.034Z,18.00
2022-10-31T16:24:32.387Z,17.90
2022-10-31T16:27:06.674Z,17.80
2022-10-31T16:29:44.154Z,17.70
2022-10-31T16:32:30.961Z,17.70
2022-10-31T16:35:22.296Z,17.60
2022-10-31T16:37:48.953Z,17.60
2022-10-31T16:40:16.649Z,17.50
2022-10-31T16:42:44.503Z,17.50
2022-10-31T16:45:21.310Z,17.50
2022-10-31T16:47:49.316Z,17.40
2022-10-31T16:50:24.783Z,17.30
2022-10-31T16:53:12.725Z,17.10
2022-10-31T16:55:56.687Z,17.10
2022-10-31T16:58:26.253Z,17.10
2022-10-31T17:00:53.694Z,17.10
2022-10-31T17:03:20.882Z,17.00
2022-10-31T17:05:47.595Z,17.00
2022-10-31T17:08:14.325Z,17.00
2022-10-31T17:10:42.573Z,16.90
2022-10-31T17:13:15.977Z,16.80
2022-10-31T17:15:46.804Z,16.80
2022-10-31T17:18:15.985Z,16.70
2022-10-31T17:20:43.831Z,16.70
2022-10-31T17:23:11.813Z,16.60
2022-10-31T17:25:38.902Z,16.60
2022-10-31T17:28:06.062Z,16.50
2022-10-31T17:30:34.416Z,16.40
2022-10-31T17:33:01.311Z,16.40
2022-10-31T17:35:28.408Z,16.20
2022-10-31T17:37:55.043Z,16.20
2022-10-31T17:40:22.694Z,16.10
2022-10-31T17:42:58.980Z,16.10
2022-10-31T17:45:27.133Z,15.90
2022-10-31T17:47:54.232Z,15.90
2022-10-31T17:50:23.473Z,15.80
2022-10-31T17:52:50.613Z,15.80
2022-10-31T17:55:18.008Z,15.70
2022-10-31T17:57:45.256Z,15.70
2022-10-31T18:00:15.318Z,15.60
2022-10-31T18:02:42.136Z,15.60
2022-10-31T18:05:09.394Z,15.50
2022-10-31T18:07:36.104Z,15.40
2022-10-31T18:10:02.831Z,15.30
2022-10-31T18:12:32.147Z,15.30
2022-10-31T18:14:58.979Z,15.20
2022-10-31T18:17:25.628Z,15.10
2022-10-31T18:19:52.269Z,14.90
2022-10-31T18:22:18.898Z,14.90
2022-10-31T18:24:45.565Z,14.90
2022-10-31T18:27:12.188Z,14.80
2022-10-31T18:29:38.831Z,14.80
2022-10-31T18:32:09.483Z,14.80
2022-10-31T18:34:36.684Z,14.60
2022-10-31T18:37:03.558Z,14.60
2022-10-31T18:39:30.343Z,14.60
2022-10-31T18:41:57.326Z,14.50
2022-10-31T18:44:24.105Z,14.50
2022-10-31T18:46:50.722Z,14.50
2022-10-31T18:49:22.494Z,14.40
2022-10-31T18:51:50.343Z,14.20
2022-10-31T18:54:17.062Z,14.20
2022-10-31T18:56:44.402Z,14.00
2022-10-31T18:59:11.669Z,14.00
2022-10-31T19:01:38.443Z,14.00
2022-10-31T19:04:05.508Z,13.90
2022-10-31T19:06:32.583Z,13.90
2022-10-31T19:09:01.473Z,13.90
2022-10-31T19:11:28.582Z,13.80
2022-10-31T19:13:57.039Z,13.90
2022-10-31T19:16:23.741Z,13.90
2022-10-31T19:18:57.413Z,13.90
2022-10-31T19:21:24.527Z,13.90
2022-10-31T19:23:53.280Z,13.90
2022-10-31T19:26:19.939Z,13.90
2022-10-31T19:28:46.644Z,13.90
2022-10-31T19:31:13.345Z,13.90
2022-10-31T19:33:40.102Z,13.90
2022-10-31T19:36:10.223Z,13.90
2022-10-31T19:38:38.604Z,13.90
2022-10-31T19:41:08.087Z,13.90
2022-10-31T19:43:34.751Z,13.90
2022-10-31T19:46:03.660Z,13.90
2022-10-31T19:48:30.836Z,13.90
2022-10-31T19:51:02.203Z,14.00
2022-10-31T19:53:30.468Z,14.00
2022-10-31T19:55:57.797Z,14.00
2022-10-31T19:58:24.630Z,13.90
2022-10-31T20:00:51.465Z,13.90
2022-10-31T20:03:21.580Z,13.90
2022-10-31T20:05:50.201Z,13.90
2022-10-31T20:08:21.260Z,13.90
2022-10-31T20:10:59.578Z,13.80
2022-10-31T20:13:27.653Z,13.80
2022-10-31T20:15:59.911Z,13.70
2022-10-31T20:18:26.890Z,13.70
2022-10-31T20:20:53.761Z,13.60
2022-10-31T20:23:20.599Z,13.60
2022-10-31T20:25:51.361Z,13.50
2022-10-31T20:28:18.286Z,13.50
2022-10-31T20:30:45.050Z,13.50
2022-10-31T20:33:11.727Z,13.50
2022-10-31T20:35:40.053Z,13.50
2022-10-31T20:38:07.534Z,13.50
2022-10-31T20:40:35.368Z,13.50
2022-10-31T20:43:03.491Z,13.50
2022-10-31T20:45:31.106Z,13.40
2022-10-31T20:47:58.749Z,13.40
2022-10-31T20:50:26.007Z,13.40
2022-10-31T20:52:53.165Z,13.30
2022-10-31T20:55:20.238Z,13.40
2022-10-31T20:57:47.092Z,13.30
2022-10-31T21:00:14.044Z,13.30
2022-10-31T21:02:41.761Z,13.20
2022-10-31T21:05:12.362Z,13.20
2022-10-31T21:07:39.514Z,13.20
2022-10-31T21:10:14.869Z,13.10
2022-10-31T21:12:45.922Z,13.10
2022-10-31T21:15:14.242Z,13.10
2022-10-31T21:17:41.549Z,13.10
2022-10-31T21:20:10.252Z,13.00
2022-10-31T21:22:37.426Z,13.00
2022-10-31T21:25:04.448Z,12.90
2022-10-31T21:27:31.229Z,12.90
2022-10-31T21:29:58.277Z,12.80
2022-10-31T21:32:25.020Z,12.80
2022-10-31T21:34:51.641Z,12.80
2022-10-31T21:37:18.301Z,12.80
2022-10-31T21:39:50.459Z,12.80
2022-10-31T21:42:20.597Z,12.80
2022-10-31T21:44:48.901Z,12.70
2022-10-31T21:47:16.144Z,12.70
2022-10-31T21:49:44.315Z,12.70
2022-10-31T21:52:11.063Z,12.70
2022-10-31T21:54:37.699Z,12.70
2022-10-31T21:57:04.449Z,12.70
2022-10-31T21:59:31.220Z,12.70
2022-10-31T22:02:00.404Z,12.70
2022-10-31T22:04:28.296Z,12.60
2022-10-31T22:06:55.165Z,12.60
2022-10-31T22:09:23.239Z,12.60
2022-10-31T22:11:50.189Z,12.70
2022-10-31T22:14:16.967Z,12.60
2022-10-31T22:16:43.966Z,12.50
2022-10-31T22:19:12.648Z,12.50
2022-10-31T22:21:42.245Z,12.50
2022-10-31T22:24:10.129Z,12.50
2022-10-31T22:26:37.915Z,12.50
2022-10-31T22:29:07.169Z,12.50
2022-10-31T22:31:37.154Z,12.50
2022-10-31T22:34:03.801Z,12.50
2022-10-31T22:36:31.212Z,12.50
2022-10-31T22:38:58.684Z,12.50
2022-10-31T22:41:28.543Z,12.50
2022-10-31T22:43:56.071Z,12.50
2022-10-31T22:46:25.513Z,12.50
2022-10-31T22:48:55.456Z,12.60
2022-10-31T22:51:30.681Z,12.60
2022-10-31T22:53:57.664Z,12.60
2022-10-31T22:56:27.417Z,12.70
2022-10-31T22:58:54.379Z,12.70
2022-10-31T23:01:24.012Z,12.70
2022-10-31T23:03:51.124Z,12.70
2022-10-31T23:06:19.804Z,12.70
2022-10-31T23:08:47.440Z,12.70
2022-10-31T23:11:19.847Z,12.70
2022-10-31T23:14:06.944Z,12.80
2022-10-31T23:16:34.125Z,12.80
2022-10-31T23:19:00.847Z,12.80
2022-10-31T23:21:46.413Z,12.80
2022-10-31T23:24:13.311Z,12.80
2022-10-31T23:26:58.695Z,12.80
2022-10-31T23:29:25.377Z,12.80
2022-10-31T23:31:54.468Z,12.80
2022-10-31T23:34:22.331Z,12.80
2022-10-31T23:36:49.646Z,12.80
2022-10-31T23:39:18.862Z,12.80
2022-10-31T23:41:47.983Z,12.90
2022-10-31T23:44:14.664Z,12.90
2022-10-31T23:46:41.271Z,12.90
2022-10-31T23:49:07.896Z,12.90
2022-10-31T23:51:34.558Z,12.90
2022-10-31T23:54:01.217Z,13.00
2022-10-31T23:56:27.867Z,13.00
2022-10-31T23:58:54.596Z,13.00
